sensor_id;sensor_type;location;lat;lon;timestamp;P1;durP1;ratioP1;P2;durP2;ratioP2
3979;SDS011;2004;52.452;13.120;2023-04-29T00:06:03;6.97;;;6.10;;
3979;SDS011;2004;52.452;13.120;2023-04-29T00:13:53;7.80;;;6.73;;
3979;SDS011;2004;52.452;13.120;2023-04-29T00:21:44;9.87;;;8.00;;
3979;SDS011;2004;52.452;13.120;2023-04-29T00:29:35;8.37;;;7.53;;
3979;SDS011;2004;52.452;13.120;2023-04-29T00:37:27;11.27;;;8.77;;
3979;SDS011;2004;52.452;13.120;2023-04-29T00:45:17;17.33;;;7.83;;
3979;SDS011;2004;52.452;13.120;2023-04-29T00:53:09;12.97;;;9.73;;
3979;SDS011;2004;52.452;13.120;2023-04-29T01:01:01;14.40;;;10.90;;
3979;SDS011;2004;52.452;13.120;2023-04-29T01:09:05;20.20;;;11.93;;
3979;SDS011;2004;52.452;13.120;2023-04-29T01:17:18;16.73;;;11.70;;
3979;SDS011;2004;52.452;13.120;2023-04-29T01:25:14;22.50;;;11.10;;
3979;SDS011;2004;52.452;13.120;2023-04-29T01:33:07;15.20;;;12.20;;
3979;SDS011;2004;52.452;13.120;2023-04-29T01:41:25;15.10;;;12.10;;
3979;SDS011;2004;52.452;13.120;2023-04-29T01:49:26;29.50;;;12.87;;
3979;SDS011;2004;52.452;13.120;2023-04-29T01:57:17;18.67;;;13.57;;
3979;SDS011;2004;52.452;13.120;2023-04-29T02:05:08;21.10;;;13.60;;
3979;SDS011;2004;52.452;13.120;2023-04-29T02:12:59;18.53;;;14.23;;
3979;SDS011;2004;52.452;13.120;2023-04-29T02:20:51;21.13;;;13.80;;
3979;SDS011;2004;52.452;13.120;2023-04-29T02:28:51;22.40;;;14.07;;
3979;SDS011;2004;52.452;13.120;2023-04-29T02:36:46;20.87;;;16.40;;
3979;SDS011;2004;52.452;13.120;2023-04-29T02:44:37;29.57;;;15.83;;
3979;SDS011;2004;52.452;13.120;2023-04-29T02:52:28;26.57;;;17.60;;
3979;SDS011;2004;52.452;13.120;2023-04-29T03:00:19;25.23;;;17.47;;
3979;SDS011;2004;52.452;13.120;2023-04-29T03:08:10;31.83;;;20.00;;
3979;SDS011;2004;52.452;13.120;2023-04-29T03:16:00;32.57;;;20.37;;
3979;SDS011;2004;52.452;13.120;2023-04-29T03:23:51;31.20;;;20.53;;
3979;SDS011;2004;52.452;13.120;2023-04-29T03:31:42;35.80;;;22.50;;
3979;SDS011;2004;52.452;13.120;2023-04-29T03:39:33;36.17;;;24.70;;
3979;SDS011;2004;52.452;13.120;2023-04-29T03:47:24;35.50;;;24.67;;
3979;SDS011;2004;52.452;13.120;2023-04-29T03:55:14;36.73;;;24.63;;
3979;SDS011;2004;52.452;13.120;2023-04-29T04:03:05;38.00;;;25.63;;
3979;SDS011;2004;52.452;13.120;2023-04-29T04:10:55;39.07;;;25.23;;
3979;SDS011;2004;52.452;13.120;2023-04-29T04:18:51;43.80;;;28.00;;
3979;SDS011;2004;52.452;13.120;2023-04-29T04:26:42;45.07;;;29.17;;
3979;SDS011;2004;52.452;13.120;2023-04-29T04:34:32;50.63;;;29.87;;
3979;SDS011;2004;52.452;13.120;2023-04-29T04:42:23;44.90;;;26.70;;
3979;SDS011;2004;52.452;13.120;2023-04-29T04:50:14;49.50;;;29.73;;
3979;SDS011;2004;52.452;13.120;2023-04-29T04:58:04;47.13;;;28.97;;
3979;SDS011;2004;52.452;13.120;2023-04-29T05:05:55;60.63;;;33.13;;
3979;SDS011;2004;52.452;13.120;2023-04-29T05:13:47;58.47;;;32.70;;
3979;SDS011;2004;52.452;13.120;2023-04-29T05:21:38;55.43;;;32.17;;
3979;SDS011;2004;52.452;13.120;2023-04-29T05:29:28;55.07;;;31.93;;
3979;SDS011;2004;52.452;13.120;2023-04-29T05:37:19;56.63;;;31.73;;
3979;SDS011;2004;52.452;13.120;2023-04-29T05:45:09;55.43;;;30.97;;
3979;SDS011;2004;52.452;13.120;2023-04-29T05:53:01;62.13;;;32.90;;
3979;SDS011;2004;52.452;13.120;2023-04-29T06:00:51;55.63;;;30.83;;
3979;SDS011;2004;52.452;13.120;2023-04-29T06:08:42;51.83;;;28.30;;
3979;SDS011;2004;52.452;13.120;2023-04-29T06:16:32;51.13;;;26.30;;
3979;SDS011;2004;52.452;13.120;2023-04-29T06:24:23;51.40;;;27.37;;
3979;SDS011;2004;52.452;13.120;2023-04-29T06:32:14;55.07;;;26.73;;
3979;SDS011;2004;52.452;13.120;2023-04-29T06:40:06;43.70;;;24.33;;
3979;SDS011;2004;52.452;13.120;2023-04-29T06:47:57;39.93;;;22.70;;
3979;SDS011;2004;52.452;13.120;2023-04-29T06:55:48;50.70;;;24.37;;
3979;SDS011;2004;52.452;13.120;2023-04-29T07:03:39;57.87;;;27.10;;
3979;SDS011;2004;52.452;13.120;2023-04-29T07:11:32;54.77;;;29.03;;
3979;SDS011;2004;52.452;13.120;2023-04-29T07:19:23;57.93;;;27.50;;
3979;SDS011;2004;52.452;13.120;2023-04-29T07:27:14;47.57;;;25.77;;
3979;SDS011;2004;52.452;13.120;2023-04-29T07:35:04;38.70;;;24.37;;
3979;SDS011;2004;52.452;13.120;2023-04-29T07:42:57;40.50;;;24.33;;
3979;SDS011;2004;52.452;13.120;2023-04-29T07:50:47;36.00;;;21.80;;
3979;SDS011;2004;52.452;13.120;2023-04-29T07:58:38;27.80;;;18.00;;
3979;SDS011;2004;52.452;13.120;2023-04-29T08:06:29;25.83;;;15.70;;
3979;SDS011;2004;52.452;13.120;2023-04-29T08:14:21;25.63;;;15.20;;
3979;SDS011;2004;52.452;13.120;2023-04-29T08:22:12;29.47;;;19.17;;
3979;SDS011;2004;52.452;13.120;2023-04-29T08:30:03;31.23;;;19.17;;
3979;SDS011;2004;52.452;13.120;2023-04-29T08:37:55;31.27;;;19.50;;
3979;SDS011;2004;52.452;13.120;2023-04-29T08:45:46;37.13;;;21.40;;
3979;SDS011;2004;52.452;13.120;2023-04-29T08:53:39;46.47;;;25.10;;
3979;SDS011;2004;52.452;13.120;2023-04-29T09:01:30;67.47;;;31.60;;
3979;SDS011;2004;52.452;13.120;2023-04-29T09:09:22;62.03;;;31.50;;
3979;SDS011;2004;52.452;13.120;2023-04-29T09:17:13;50.53;;;27.60;;
3979;SDS011;2004;52.452;13.120;2023-04-29T09:25:11;47.70;;;26.00;;
3979;SDS011;2004;52.452;13.120;2023-04-29T09:33:03;42.10;;;24.60;;
3979;SDS011;2004;52.452;13.120;2023-04-29T09:40:58;42.90;;;25.57;;
3979;SDS011;2004;52.452;13.120;2023-04-29T09:48:48;47.07;;;28.33;;
3979;SDS011;2004;52.452;13.120;2023-04-29T09:56:49;53.77;;;30.80;;
3979;SDS011;2004;52.452;13.120;2023-04-29T10:04:41;55.97;;;28.57;;
3979;SDS011;2004;52.452;13.120;2023-04-29T10:12:34;51.10;;;29.83;;
3979;SDS011;2004;52.452;13.120;2023-04-29T10:20:27;59.10;;;31.43;;
3979;SDS011;2004;52.452;13.120;2023-04-29T10:28:18;61.47;;;31.50;;
3979;SDS011;2004;52.452;13.120;2023-04-29T10:36:12;54.93;;;33.00;;
3979;SDS011;2004;52.452;13.120;2023-04-29T10:44:03;58.37;;;31.90;;
3979;SDS011;2004;52.452;13.120;2023-04-29T10:52:01;47.47;;;30.33;;
3979;SDS011;2004;52.452;13.120;2023-04-29T10:59:53;49.60;;;31.17;;
3979;SDS011;2004;52.452;13.120;2023-04-29T11:07:44;37.30;;;26.23;;
3979;SDS011;2004;52.452;13.120;2023-04-29T11:15:35;40.80;;;27.50;;
3979;SDS011;2004;52.452;13.120;2023-04-29T11:23:25;40.50;;;25.63;;
3979;SDS011;2004;52.452;13.120;2023-04-29T11:31:16;32.97;;;23.63;;
3979;SDS011;2004;52.452;13.120;2023-04-29T11:39:07;26.83;;;21.67;;
3979;SDS011;2004;52.452;13.120;2023-04-29T11:47:01;30.67;;;20.80;;
3979;SDS011;2004;52.452;13.120;2023-04-29T11:54:52;30.33;;;20.83;;
3979;SDS011;2004;52.452;13.120;2023-04-29T12:02:45;21.93;;;18.10;;
3979;SDS011;2004;52.452;13.120;2023-04-29T12:10:36;29.40;;;18.93;;
3979;SDS011;2004;52.452;13.120;2023-04-29T12:18:27;24.53;;;17.30;;
3979;SDS011;2004;52.452;13.120;2023-04-29T12:26:19;19.70;;;14.97;;
3979;SDS011;2004;52.452;13.120;2023-04-29T12:34:13;18.17;;;13.07;;
3979;SDS011;2004;52.452;13.120;2023-04-29T12:42:04;17.83;;;11.73;;
3979;SDS011;2004;52.452;13.120;2023-04-29T12:49:54;17.20;;;9.77;;
3979;SDS011;2004;52.452;13.120;2023-04-29T12:57:46;11.87;;;8.50;;
3979;SDS011;2004;52.452;13.120;2023-04-29T13:05:38;13.37;;;6.53;;
3979;SDS011;2004;52.452;13.120;2023-04-29T13:13:29;7.23;;;5.13;;
3979;SDS011;2004;52.452;13.120;2023-04-29T13:21:20;6.47;;;5.77;;
3979;SDS011;2004;52.452;13.120;2023-04-29T13:29:11;13.00;;;8.90;;
3979;SDS011;2004;52.452;13.120;2023-04-29T13:37:01;11.07;;;8.23;;
3979;SDS011;2004;52.452;13.120;2023-04-29T13:44:52;10.60;;;7.97;;
3979;SDS011;2004;52.452;13.120;2023-04-29T13:52:46;14.27;;;8.40;;
3979;SDS011;2004;52.452;13.120;2023-04-29T14:00:36;18.97;;;9.30;;
3979;SDS011;2004;52.452;13.120;2023-04-29T14:08:28;11.50;;;7.50;;
3979;SDS011;2004;52.452;13.120;2023-04-29T14:16:19;7.37;;;6.63;;
3979;SDS011;2004;52.452;13.120;2023-04-29T14:24:09;15.50;;;7.10;;
3979;SDS011;2004;52.452;13.120;2023-04-29T14:32:00;8.10;;;6.80;;
3979;SDS011;2004;52.452;13.120;2023-04-29T14:39:50;14.03;;;6.33;;
3979;SDS011;2004;52.452;13.120;2023-04-29T14:47:41;6.80;;;5.57;;
3979;SDS011;2004;52.452;13.120;2023-04-29T14:55:31;9.93;;;6.17;;
3979;SDS011;2004;52.452;13.120;2023-04-29T15:03:22;18.20;;;7.27;;
3979;SDS011;2004;52.452;13.120;2023-04-29T15:11:14;9.83;;;6.57;;
3979;SDS011;2004;52.452;13.120;2023-04-29T15:19:04;15.23;;;5.97;;
3979;SDS011;2004;52.452;13.120;2023-04-29T15:26:55;18.10;;;7.53;;
3979;SDS011;2004;52.452;13.120;2023-04-29T15:34:45;11.60;;;6.70;;
3979;SDS011;2004;52.452;13.120;2023-04-29T15:42:36;10.80;;;6.77;;
3979;SDS011;2004;52.452;13.120;2023-04-29T15:50:26;12.60;;;8.07;;
3979;SDS011;2004;52.452;13.120;2023-04-29T15:58:17;9.50;;;6.40;;
3979;SDS011;2004;52.452;13.120;2023-04-29T16:06:08;13.87;;;6.07;;
3979;SDS011;2004;52.452;13.120;2023-04-29T16:13:59;9.87;;;6.57;;
3979;SDS011;2004;52.452;13.120;2023-04-29T16:21:49;13.53;;;7.13;;
3979;SDS011;2004;52.452;13.120;2023-04-29T16:29:40;11.00;;;5.03;;
3979;SDS011;2004;52.452;13.120;2023-04-29T16:37:30;7.33;;;4.83;;
3979;SDS011;2004;52.452;13.120;2023-04-29T16:45:22;7.77;;;4.10;;
3979;SDS011;2004;52.452;13.120;2023-04-29T16:53:13;11.10;;;4.60;;
3979;SDS011;2004;52.452;13.120;2023-04-29T17:01:04;5.63;;;3.30;;
3979;SDS011;2004;52.452;13.120;2023-04-29T17:08:56;4.93;;;3.60;;
3979;SDS011;2004;52.452;13.120;2023-04-29T17:16:47;5.40;;;2.83;;
3979;SDS011;2004;52.452;13.120;2023-04-29T17:24:38;6.50;;;3.43;;
3979;SDS011;2004;52.452;13.120;2023-04-29T17:32:30;4.43;;;2.70;;
3979;SDS011;2004;52.452;13.120;2023-04-29T17:40:27;6.20;;;2.80;;
3979;SDS011;2004;52.452;13.120;2023-04-29T17:48:18;2.57;;;2.37;;
3979;SDS011;2004;52.452;13.120;2023-04-29T17:56:11;3.63;;;2.50;;
3979;SDS011;2004;52.452;13.120;2023-04-29T18:04:01;5.80;;;3.10;;
3979;SDS011;2004;52.452;13.120;2023-04-29T18:11:52;16.43;;;2.67;;
3979;SDS011;2004;52.452;13.120;2023-04-29T18:19:44;4.23;;;2.63;;
3979;SDS011;2004;52.452;13.120;2023-04-29T18:27:36;3.90;;;2.57;;
3979;SDS011;2004;52.452;13.120;2023-04-29T18:35:27;6.00;;;3.40;;
3979;SDS011;2004;52.452;13.120;2023-04-29T18:43:17;7.40;;;2.93;;
3979;SDS011;2004;52.452;13.120;2023-04-29T18:51:13;9.43;;;3.00;;
3979;SDS011;2004;52.452;13.120;2023-04-29T18:59:03;6.10;;;3.03;;
3979;SDS011;2004;52.452;13.120;2023-04-29T19:06:54;3.47;;;3.13;;
3979;SDS011;2004;52.452;13.120;2023-04-29T19:14:46;3.73;;;2.77;;
3979;SDS011;2004;52.452;13.120;2023-04-29T19:22:36;7.60;;;3.43;;
3979;SDS011;2004;52.452;13.120;2023-04-29T19:30:27;6.13;;;3.60;;
3979;SDS011;2004;52.452;13.120;2023-04-29T19:38:18;5.50;;;3.90;;
3979;SDS011;2004;52.452;13.120;2023-04-29T19:46:12;7.40;;;4.20;;
3979;SDS011;2004;52.452;13.120;2023-04-29T19:54:02;6.40;;;3.70;;
3979;SDS011;2004;52.452;13.120;2023-04-29T20:01:53;4.40;;;4.00;;
3979;SDS011;2004;52.452;13.120;2023-04-29T20:09:44;6.00;;;4.90;;
3979;SDS011;2004;52.452;13.120;2023-04-29T20:17:35;9.00;;;3.53;;
3979;SDS011;2004;52.452;13.120;2023-04-29T20:25:26;7.57;;;4.53;;
3979;SDS011;2004;52.452;13.120;2023-04-29T20:33:17;7.97;;;5.07;;
3979;SDS011;2004;52.452;13.120;2023-04-29T20:41:08;9.10;;;5.90;;
3979;SDS011;2004;52.452;13.120;2023-04-29T20:48:58;5.60;;;4.03;;
3979;SDS011;2004;52.452;13.120;2023-04-29T20:56:49;9.60;;;4.70;;
3979;SDS011;2004;52.452;13.120;2023-04-29T21:04:39;9.87;;;4.83;;
3979;SDS011;2004;52.452;13.120;2023-04-29T21:12:30;9.63;;;5.17;;
3979;SDS011;2004;52.452;13.120;2023-04-29T21:20:21;9.20;;;5.30;;
3979;SDS011;2004;52.452;13.120;2023-04-29T21:28:12;8.80;;;5.50;;
3979;SDS011;2004;52.452;13.120;2023-04-29T21:36:03;14.83;;;6.40;;
3979;SDS011;2004;52.452;13.120;2023-04-29T21:43:56;17.57;;;7.47;;
3979;SDS011;2004;52.452;13.120;2023-04-29T21:51:47;8.63;;;6.30;;
3979;SDS011;2004;52.452;13.120;2023-04-29T21:59:38;13.33;;;7.03;;
3979;SDS011;2004;52.452;13.120;2023-04-29T22:07:29;9.10;;;6.10;;
3979;SDS011;2004;52.452;13.120;2023-04-29T22:15:19;8.27;;;6.13;;
3979;SDS011;2004;52.452;13.120;2023-04-29T22:23:10;9.50;;;6.10;;
3979;SDS011;2004;52.452;13.120;2023-04-29T22:31:01;11.90;;;6.20;;
3979;SDS011;2004;52.452;13.120;2023-04-29T22:38:51;8.67;;;7.00;;
3979;SDS011;2004;52.452;13.120;2023-04-29T22:46:42;13.27;;;7.40;;
3979;SDS011;2004;52.452;13.120;2023-04-29T22:54:32;9.63;;;5.87;;
3979;SDS011;2004;52.452;13.120;2023-04-29T23:02:23;7.77;;;5.90;;
3979;SDS011;2004;52.452;13.120;2023-04-29T23:10:17;7.23;;;4.93;;
3979;SDS011;2004;52.452;13.120;2023-04-29T23:18:08;7.47;;;4.57;;
3979;SDS011;2004;52.452;13.120;2023-04-29T23:25:58;7.13;;;4.47;;
3979;SDS011;2004;52.452;13.120;2023-04-29T23:33:49;8.10;;;4.10;;
3979;SDS011;2004;52.452;13.120;2023-04-29T23:41:40;3.97;;;3.60;;
3979;SDS011;2004;52.452;13.120;2023-04-29T23:49:30;7.40;;;4.77;;
3979;SDS011;2004;52.452;13.120;2023-04-29T23:57:23;8.13;;;5.57;;
